sensor_id;sensor_type;location;lat;lon;timestamp;pressure;altitude;pressure_sealevel;temperature;humidity
7309;BME280;3695;53.330;9.876;2023-02-01T00:01:51;102149.16;;;5.67;100.00
7309;BME280;3695;53.330;9.876;2023-02-01T00:04:19;102149.31;;;5.66;100.00
7309;BME280;3695;53.330;9.876;2023-02-01T00:06:46;102122.25;;;5.67;100.00
7309;BME280;3695;53.330;9.876;2023-02-01T00:09:12;102113.81;;;5.80;100.00
7309;BME280;3695;53.330;9.876;2023-02-01T00:11:39;102107.97;;;5.67;100.00
7309;BME280;3695;53.330;9.876;2023-02-01T00:14:06;102115.44;;;5.73;100.00
7309;BME280;3695;53.330;9.876;2023-02-01T00:16:33;102126.25;;;5.63;100.00
7309;BME280;3695;53.330;9.876;2023-02-01T00:19:02;102113.66;;;5.82;100.00
7309;BME280;3695;53.330;9.876;2023-02-01T00:21:30;102113.66;;;5.82;100.00
7309;BME280;3695;53.330;9.876;2023-02-01T00:23:57;102089.22;;;5.57;100.00
7309;BME280;3695;53.330;9.876;2023-02-01T00:26:27;102077.78;;;5.73;100.00
7309;BME280;3695;53.330;9.876;2023-02-01T00:28:56;102072.00;;;5.86;100.00
7309;BME280;3695;53.330;9.876;2023-02-01T00:31:22;102070.72;;;5.72;100.00
7309;BME280;3695;53.330;9.876;2023-02-01T00:33:49;102074.53;;;5.87;100.00
7309;BME280;3695;53.330;9.876;2023-02-01T00:36:16;102054.78;;;5.79;100.00
7309;BME280;3695;53.330;9.876;2023-02-01T00:38:44;102066.00;;;5.92;100.00
7309;BME280;3695;53.330;9.876;2023-02-01T00:41:13;102064.72;;;5.78;100.00
7309;BME280;3695;53.330;9.876;2023-02-01T00:43:39;102082.31;;;5.73;100.00
7309;BME280;3695;53.330;9.876;2023-02-01T00:46:06;102089.44;;;5.82;100.00
7309;BME280;3695;53.330;9.876;2023-02-01T00:48:33;102109.53;;;5.69;100.00
7309;BME280;3695;53.330;9.876;2023-02-01T00:51:00;102102.16;;;5.72;100.00
7309;BME280;3695;53.330;9.876;2023-02-01T00:53:27;102107.06;;;5.76;100.00
7309;BME280;3695;53.330;9.876;2023-02-01T00:55:55;102119.03;;;5.82;100.00
7309;BME280;3695;53.330;9.876;2023-02-01T00:58:21;102108.97;;;5.84;100.00
7309;BME280;3695;53.330;9.876;2023-02-01T01:00:49;102107.91;;;5.77;100.00
7309;BME280;3695;53.330;9.876;2023-02-01T01:03:15;102127.28;;;5.80;100.00
7309;BME280;3695;53.330;9.876;2023-02-01T01:05:45;102117.44;;;5.71;100.00
7309;BME280;3695;53.330;9.876;2023-02-01T01:08:12;102116.19;;;5.65;100.00
7309;BME280;3695;53.330;9.876;2023-02-01T01:10:38;102107.84;;;5.68;100.00
7309;BME280;3695;53.330;9.876;2023-02-01T01:13:07;102094.75;;;5.74;100.00
7309;BME280;3695;53.330;9.876;2023-02-01T01:15:36;102101.44;;;5.87;100.00
7309;BME280;3695;53.330;9.876;2023-02-01T01:18:03;102102.28;;;5.88;100.00
7309;BME280;3695;53.330;9.876;2023-02-01T01:20:29;102103.84;;;5.73;100.00
7309;BME280;3695;53.330;9.876;2023-02-01T01:22:56;102105.28;;;5.85;100.00
7309;BME280;3695;53.330;9.876;2023-02-01T01:25:22;102081.91;;;5.85;100.00
7309;BME280;3695;53.330;9.876;2023-02-01T01:27:49;102079.53;;;5.64;100.00
7309;BME280;3695;53.330;9.876;2023-02-01T01:30:17;102076.69;;;5.84;100.00
7309;BME280;3695;53.330;9.876;2023-02-01T01:32:43;102081.22;;;5.83;100.00
7309;BME280;3695;53.330;9.876;2023-02-01T01:35:10;102071.25;;;5.76;100.00
7309;BME280;3695;53.330;9.876;2023-02-01T01:37:37;102070.16;;;5.86;100.00
7309;BME280;3695;53.330;9.876;2023-02-01T01:40:05;102067.75;;;5.65;100.00
7309;BME280;3695;53.330;9.876;2023-02-01T01:42:36;102079.53;;;5.82;100.00
7309;BME280;3695;53.330;9.876;2023-02-01T01:45:05;102068.72;;;5.74;100.00
7309;BME280;3695;53.330;9.876;2023-02-01T01:47:36;102065.44;;;5.88;100.00
7309;BME280;3695;53.330;9.876;2023-02-01T01:50:06;102066.41;;;5.79;100.00
7309;BME280;3695;53.330;9.876;2023-02-01T01:52:33;102062.47;;;5.74;100.00
7309;BME280;3695;53.330;9.876;2023-02-01T01:55:00;102060.22;;;5.87;100.00
7309;BME280;3695;53.330;9.876;2023-02-01T01:57:32;102077.53;;;5.84;100.00
7309;BME280;3695;53.330;9.876;2023-02-01T02:00:03;102057.53;;;5.87;100.00
7309;BME280;3695;53.330;9.876;2023-02-01T02:02:33;102053.31;;;5.84;100.00
7309;BME280;3695;53.330;9.876;2023-02-01T02:05:01;102039.59;;;5.69;100.00
7309;BME280;3695;53.330;9.876;2023-02-01T02:07:30;102066.72;;;5.76;100.00
7309;BME280;3695;53.330;9.876;2023-02-01T02:09:58;102035.66;;;5.82;100.00
7309;BME280;3695;53.330;9.876;2023-02-01T02:12:25;102049.41;;;5.79;100.00
7309;BME280;3695;53.330;9.876;2023-02-01T02:14:51;102046.03;;;5.77;100.00
7309;BME280;3695;53.330;9.876;2023-02-01T02:17:26;102040.78;;;5.93;100.00
7309;BME280;3695;53.330;9.876;2023-02-01T02:23:30;102035.28;;;5.77;100.00
7309;BME280;3695;53.330;9.876;2023-02-01T02:26:35;102017.88;;;5.89;100.00
7309;BME280;3695;53.330;9.876;2023-02-01T02:29:36;102021.03;;;5.84;100.00
7309;BME280;3695;53.330;9.876;2023-02-01T02:32:39;102017.59;;;5.92;100.00
7309;BME280;3695;53.330;9.876;2023-02-01T02:35:16;102018.09;;;5.95;100.00
7309;BME280;3695;53.330;9.876;2023-02-01T02:37:52;102008.72;;;5.99;100.00
7309;BME280;3695;53.330;9.876;2023-02-01T02:40:27;102041.19;;;5.62;100.00
7309;BME280;3695;53.330;9.876;2023-02-01T02:43:01;102083.38;;;5.62;100.00
7309;BME280;3695;53.330;9.876;2023-02-01T02:45:52;102155.44;;;5.58;100.00
7309;BME280;3695;53.330;9.876;2023-02-01T02:48:43;102195.69;;;5.50;100.00
7309;BME280;3695;53.330;9.876;2023-02-01T02:51:14;102252.88;;;5.52;100.00
7309;BME280;3695;53.330;9.876;2023-02-01T02:54:04;102302.88;;;5.45;100.00
7309;BME280;3695;53.330;9.876;2023-02-01T02:56:49;102298.19;;;5.47;100.00
7309;BME280;3695;53.330;9.876;2023-02-01T02:59:35;102311.72;;;5.55;100.00
7309;BME280;3695;53.330;9.876;2023-02-01T03:02:21;102306.34;;;5.55;100.00
7309;BME280;3695;53.330;9.876;2023-02-01T03:05:05;102289.53;;;5.53;100.00
7309;BME280;3695;53.330;9.876;2023-02-01T03:08:04;102272.09;;;5.57;100.00
7309;BME280;3695;53.330;9.876;2023-02-01T03:10:37;102251.97;;;5.61;100.00
7309;BME280;3695;53.330;9.876;2023-02-01T03:13:10;102249.59;;;5.31;100.00
7309;BME280;3695;53.330;9.876;2023-02-01T03:15:41;102254.81;;;5.32;100.00
7309;BME280;3695;53.330;9.876;2023-02-01T03:18:13;102275.44;;;5.42;100.00
7309;BME280;3695;53.330;9.876;2023-02-01T03:20:44;102312.97;;;5.33;100.00
7309;BME280;3695;53.330;9.876;2023-02-01T03:23:16;102366.31;;;5.28;100.00
7309;BME280;3695;53.330;9.876;2023-02-01T03:25:43;102425.91;;;5.24;100.00
7309;BME280;3695;53.330;9.876;2023-02-01T03:28:11;102513.16;;;5.20;100.00
7309;BME280;3695;53.330;9.876;2023-02-01T03:30:39;102568.72;;;4.90;100.00
7309;BME280;3695;53.330;9.876;2023-02-01T03:33:09;102614.28;;;4.71;100.00
7309;BME280;3695;53.330;9.876;2023-02-01T03:35:44;102678.41;;;4.76;100.00
7309;BME280;3695;53.330;9.876;2023-02-01T03:38:19;102734.13;;;4.62;100.00
7309;BME280;3695;53.330;9.876;2023-02-01T03:40:51;102736.38;;;4.36;100.00
7309;BME280;3695;53.330;9.876;2023-02-01T03:43:21;102759.59;;;4.26;100.00
7309;BME280;3695;53.330;9.876;2023-02-01T03:45:52;102791.31;;;4.32;100.00
7309;BME280;3695;53.330;9.876;2023-02-01T03:48:22;102792.75;;;4.25;100.00
7309;BME280;3695;53.330;9.876;2023-02-01T03:50:52;102828.50;;;4.37;100.00
7309;BME280;3695;53.330;9.876;2023-02-01T03:53:22;102846.44;;;4.36;100.00
7309;BME280;3695;53.330;9.876;2023-02-01T03:55:51;102835.63;;;4.27;100.00
7309;BME280;3695;53.330;9.876;2023-02-01T03:58:20;102851.50;;;4.51;100.00
7309;BME280;3695;53.330;9.876;2023-02-01T04:00:50;102850.81;;;4.37;100.00
7309;BME280;3695;53.330;9.876;2023-02-01T04:03:17;102856.22;;;4.15;100.00
7309;BME280;3695;53.330;9.876;2023-02-01T04:05:43;102887.47;;;4.27;100.00
7309;BME280;3695;53.330;9.876;2023-02-01T04:08:10;102926.69;;;4.51;100.00
7309;BME280;3695;53.330;9.876;2023-02-01T04:10:37;102928.91;;;4.46;100.00
7309;BME280;3695;53.330;9.876;2023-02-01T04:13:04;102984.75;;;4.63;100.00
7309;BME280;3695;53.330;9.876;2023-02-01T04:15:30;103014.22;;;4.53;100.00
7309;BME280;3695;53.330;9.876;2023-02-01T04:17:57;103047.28;;;4.54;100.00
7309;BME280;3695;53.330;9.876;2023-02-01T04:20:23;103074.38;;;4.51;100.00
7309;BME280;3695;53.330;9.876;2023-02-01T04:22:49;103114.69;;;4.73;100.00
7309;BME280;3695;53.330;9.876;2023-02-01T04:25:16;103108.69;;;4.47;100.00
7309;BME280;3695;53.330;9.876;2023-02-01T04:27:44;103139.81;;;4.72;100.00
7309;BME280;3695;53.330;9.876;2023-02-01T04:30:12;103120.66;;;4.65;100.00
7309;BME280;3695;53.330;9.876;2023-02-01T04:32:39;103104.16;;;4.59;100.00
7309;BME280;3695;53.330;9.876;2023-02-01T04:35:06;103056.09;;;4.45;100.00
7309;BME280;3695;53.330;9.876;2023-02-01T04:37:33;103049.63;;;4.47;100.00
7309;BME280;3695;53.330;9.876;2023-02-01T04:39:59;103057.28;;;4.63;100.00
7309;BME280;3695;53.330;9.876;2023-02-01T04:42:28;103049.75;;;4.46;100.00
7309;BME280;3695;53.330;9.876;2023-02-01T04:44:56;103051.56;;;4.56;100.00
7309;BME280;3695;53.330;9.876;2023-02-01T04:47:23;103056.56;;;4.38;100.00
7309;BME280;3695;53.330;9.876;2023-02-01T04:49:49;103079.03;;;4.26;100.00
7309;BME280;3695;53.330;9.876;2023-02-01T04:52:15;103131.03;;;4.36;100.00
7309;BME280;3695;53.330;9.876;2023-02-01T04:54:42;103158.88;;;4.00;100.00
7309;BME280;3695;53.330;9.876;2023-02-01T04:57:08;103197.41;;;3.99;100.00
7309;BME280;3695;53.330;9.876;2023-02-01T04:59:36;103272.59;;;3.87;100.00
7309;BME280;3695;53.330;9.876;2023-02-01T05:02:04;103375.38;;;4.00;100.00
7309;BME280;3695;53.330;9.876;2023-02-01T05:04:30;103432.50;;;3.89;100.00
7309;BME280;3695;53.330;9.876;2023-02-01T05:06:56;103517.91;;;4.08;100.00
7309;BME280;3695;53.330;9.876;2023-02-01T05:09:23;103575.56;;;4.15;100.00
7309;BME280;3695;53.330;9.876;2023-02-01T05:11:49;103628.16;;;4.05;100.00
7309;BME280;3695;53.330;9.876;2023-02-01T05:14:33;103720.75;;;4.25;100.00
7309;BME280;3695;53.330;9.876;2023-02-01T05:17:00;103778.94;;;4.24;100.00
7309;BME280;3695;53.330;9.876;2023-02-01T05:19:27;103832.56;;;3.99;100.00
7309;BME280;3695;53.330;9.876;2023-02-01T05:21:54;103911.81;;;4.04;100.00
7309;BME280;3695;53.330;9.876;2023-02-01T05:24:20;104001.81;;;4.10;100.00
7309;BME280;3695;53.330;9.876;2023-02-01T05:26:48;104150.97;;;3.86;100.00
7309;BME280;3695;53.330;9.876;2023-02-01T05:29:15;104299.97;;;4.07;100.00
7309;BME280;3695;53.330;9.876;2023-02-01T05:31:43;104305.28;;;3.45;100.00
7309;BME280;3695;53.330;9.876;2023-02-01T05:34:10;104252.06;;;3.06;100.00
7309;BME280;3695;53.330;9.876;2023-02-01T05:36:38;104231.38;;;3.08;100.00
7309;BME280;3695;53.330;9.876;2023-02-01T05:39:05;104205.19;;;2.98;100.00
7309;BME280;3695;53.330;9.876;2023-02-01T05:41:31;104224.47;;;3.04;100.00
7309;BME280;3695;53.330;9.876;2023-02-01T05:43:58;104205.97;;;3.15;100.00
7309;BME280;3695;53.330;9.876;2023-02-01T05:46:24;104228.88;;;3.21;100.00
7309;BME280;3695;53.330;9.876;2023-02-01T05:48:50;104260.75;;;3.43;100.00
7309;BME280;3695;53.330;9.876;2023-02-01T05:51:17;104262.69;;;3.24;100.00
7309;BME280;3695;53.330;9.876;2023-02-01T05:53:45;104324.50;;;3.38;100.00
7309;BME280;3695;53.330;9.876;2023-02-01T05:56:11;104401.31;;;3.39;100.00
7309;BME280;3695;53.330;9.876;2023-02-01T05:58:37;104459.38;;;3.40;100.00
7309;BME280;3695;53.330;9.876;2023-02-01T06:01:04;104566.91;;;3.68;100.00
7309;BME280;3695;53.330;9.876;2023-02-01T06:03:30;104688.84;;;3.63;100.00
7309;BME280;3695;53.330;9.876;2023-02-01T06:05:57;104724.13;;;3.72;100.00
7309;BME280;3695;53.330;9.876;2023-02-01T06:08:25;104734.53;;;3.61;100.00
7309;BME280;3695;53.330;9.876;2023-02-01T06:10:58;104707.22;;;3.53;100.00
7309;BME280;3695;53.330;9.876;2023-02-01T06:13:24;104721.75;;;3.66;100.00
7309;BME280;3695;53.330;9.876;2023-02-01T06:15:51;104749.91;;;3.94;100.00
7309;BME280;3695;53.330;9.876;2023-02-01T06:18:17;104696.41;;;3.72;100.00
7309;BME280;3695;53.330;9.876;2023-02-01T06:20:44;104789.38;;;4.09;100.00
7309;BME280;3695;53.330;9.876;2023-02-01T06:23:10;104754.97;;;4.00;100.00
7309;BME280;3695;53.330;9.876;2023-02-01T06:25:37;104754.09;;;4.17;100.00
7309;BME280;3695;53.330;9.876;2023-02-01T06:28:05;104718.72;;;4.08;100.00
7309;BME280;3695;53.330;9.876;2023-02-01T06:30:32;104761.28;;;4.16;100.00
7309;BME280;3695;53.330;9.876;2023-02-01T06:32:58;104752.59;;;4.11;100.00
7309;BME280;3695;53.330;9.876;2023-02-01T06:35:25;104769.56;;;4.11;100.00
7309;BME280;3695;53.330;9.876;2023-02-01T06:37:51;104794.28;;;4.18;100.00
7309;BME280;3695;53.330;9.876;2023-02-01T06:40:18;104822.88;;;4.19;100.00
7309;BME280;3695;53.330;9.876;2023-02-01T06:42:44;104815.13;;;4.13;100.00
7309;BME280;3695;53.330;9.876;2023-02-01T06:45:12;104843.19;;;4.25;100.00
7309;BME280;3695;53.330;9.876;2023-02-01T06:47:38;104832.91;;;4.16;100.00
7309;BME280;3695;53.330;9.876;2023-02-01T06:50:06;104841.97;;;4.13;100.00
7309;BME280;3695;53.330;9.876;2023-02-01T06:52:32;104863.88;;;4.23;100.00
7309;BME280;3695;53.330;9.876;2023-02-01T06:54:59;104869.03;;;4.27;100.00
7309;BME280;3695;53.330;9.876;2023-02-01T06:57:25;104870.09;;;4.23;100.00
7309;BME280;3695;53.330;9.876;2023-02-01T06:59:55;104870.31;;;4.37;100.00
7309;BME280;3695;53.330;9.876;2023-02-01T07:02:23;104855.38;;;4.49;100.00
7309;BME280;3695;53.330;9.876;2023-02-01T07:04:49;104863.03;;;4.57;100.00
7309;BME280;3695;53.330;9.876;2023-02-01T07:07:16;104859.25;;;4.43;100.00
7309;BME280;3695;53.330;9.876;2023-02-01T07:09:44;104870.88;;;4.44;100.00
7309;BME280;3695;53.330;9.876;2023-02-01T07:12:11;104908.25;;;4.66;100.00
7309;BME280;3695;53.330;9.876;2023-02-01T07:14:38;104920.91;;;4.81;100.00
7309;BME280;3695;53.330;9.876;2023-02-01T07:17:04;104900.22;;;4.83;100.00
7309;BME280;3695;53.330;9.876;2023-02-01T07:19:32;104859.56;;;4.55;100.00
7309;BME280;3695;53.330;9.876;2023-02-01T07:21:58;104896.22;;;4.56;100.00
7309;BME280;3695;53.330;9.876;2023-02-01T07:24:25;104946.03;;;4.63;100.00
7309;BME280;3695;53.330;9.876;2023-02-01T07:26:51;104974.09;;;4.57;100.00
7309;BME280;3695;53.330;9.876;2023-02-01T07:29:18;105037.91;;;4.71;100.00
7309;BME280;3695;53.330;9.876;2023-02-01T07:31:44;105052.81;;;4.78;100.00
7309;BME280;3695;53.330;9.876;2023-02-01T07:34:11;105065.59;;;4.73;100.00
7309;BME280;3695;53.330;9.876;2023-02-01T07:36:39;105124.84;;;4.89;100.00
7309;BME280;3695;53.330;9.876;2023-02-01T07:39:05;105138.22;;;4.90;100.00
7309;BME280;3695;53.330;9.876;2023-02-01T07:41:31;105148.41;;;4.84;100.00
7309;BME280;3695;53.330;9.876;2023-02-01T07:43:58;105149.84;;;4.91;100.00
7309;BME280;3695;53.330;9.876;2023-02-01T07:46:24;105145.75;;;5.01;100.00
7309;BME280;3695;53.330;9.876;2023-02-01T07:48:51;105114.94;;;5.08;100.00
7309;BME280;3695;53.330;9.876;2023-02-01T07:51:17;105006.78;;;5.01;100.00
7309;BME280;3695;53.330;9.876;2023-02-01T07:53:45;104841.81;;;5.02;100.00
7309;BME280;3695;53.330;9.876;2023-02-01T07:56:13;104751.16;;;5.04;100.00
7309;BME280;3695;53.330;9.876;2023-02-01T07:58:40;104700.41;;;5.14;100.00
7309;BME280;3695;53.330;9.876;2023-02-01T08:01:13;104645.25;;;5.07;100.00
7309;BME280;3695;53.330;9.876;2023-02-01T08:03:46;104633.28;;;5.13;100.00
7309;BME280;3695;53.330;9.876;2023-02-01T08:06:13;104598.56;;;5.08;100.00
7309;BME280;3695;53.330;9.876;2023-02-01T08:08:39;104568.47;;;5.17;100.00
7309;BME280;3695;53.330;9.876;2023-02-01T08:11:07;104566.13;;;5.11;100.00
7309;BME280;3695;53.330;9.876;2023-02-01T08:13:34;104580.97;;;5.02;100.00
7309;BME280;3695;53.330;9.876;2023-02-01T08:16:02;104599.09;;;5.15;100.00
7309;BME280;3695;53.330;9.876;2023-02-01T08:18:29;104609.84;;;5.30;100.00
7309;BME280;3695;53.330;9.876;2023-02-01T08:20:56;104606.03;;;5.19;100.00
7309;BME280;3695;53.330;9.876;2023-02-01T08:23:23;104628.03;;;5.41;100.00
7309;BME280;3695;53.330;9.876;2023-02-01T08:25:49;104600.94;;;5.44;100.00
7309;BME280;3695;53.330;9.876;2023-02-01T08:28:17;104600.94;;;5.44;100.00
7309;BME280;3695;53.330;9.876;2023-02-01T08:30:43;104596.66;;;5.56;100.00
7309;BME280;3695;53.330;9.876;2023-02-01T08:33:10;104547.31;;;5.41;100.00
7309;BME280;3695;53.330;9.876;2023-02-01T08:35:37;104556.03;;;5.75;100.00
7309;BME280;3695;53.330;9.876;2023-02-01T08:38:04;104523.94;;;5.72;100.00
7309;BME280;3695;53.330;9.876;2023-02-01T08:40:31;104516.56;;;5.89;100.00
7309;BME280;3695;53.330;9.876;2023-02-01T08:42:57;104516.06;;;5.83;100.00
7309;BME280;3695;53.330;9.876;2023-02-01T08:45:28;104498.63;;;5.60;100.00
7309;BME280;3695;53.330;9.876;2023-02-01T08:47:56;104464.91;;;5.68;100.00
7309;BME280;3695;53.330;9.876;2023-02-01T08:50:23;104429.91;;;5.54;100.00
7309;BME280;3695;53.330;9.876;2023-02-01T08:52:51;104408.56;;;5.51;100.00
7309;BME280;3695;53.330;9.876;2023-02-01T08:55:18;104370.88;;;5.51;100.00
7309;BME280;3695;53.330;9.876;2023-02-01T08:57:45;104374.44;;;5.66;100.00
7309;BME280;3695;53.330;9.876;2023-02-01T09:00:14;104359.38;;;5.49;100.00
7309;BME280;3695;53.330;9.876;2023-02-01T09:02:43;104318.94;;;5.92;100.00
7309;BME280;3695;53.330;9.876;2023-02-01T09:05:09;104218.16;;;5.69;100.00
7309;BME280;3695;53.330;9.876;2023-02-01T09:07:37;104189.34;;;5.84;100.00
7309;BME280;3695;53.330;9.876;2023-02-01T09:10:04;104158.81;;;6.10;100.00
7309;BME280;3695;53.330;9.876;2023-02-01T09:12:33;104112.50;;;6.05;100.00
7309;BME280;3695;53.330;9.876;2023-02-01T09:14:59;104088.38;;;5.91;100.00
7309;BME280;3695;53.330;9.876;2023-02-01T09:17:27;104065.09;;;5.90;100.00
7309;BME280;3695;53.330;9.876;2023-02-01T09:19:55;104020.94;;;6.05;100.00
7309;BME280;3695;53.330;9.876;2023-02-01T09:22:21;103993.78;;;5.83;100.00
7309;BME280;3695;53.330;9.876;2023-02-01T09:24:48;103949.63;;;5.98;100.00
7309;BME280;3695;53.330;9.876;2023-02-01T09:27:14;103919.72;;;5.77;100.00
7309;BME280;3695;53.330;9.876;2023-02-01T09:29:41;103900.44;;;5.96;100.00
7309;BME280;3695;53.330;9.876;2023-02-01T09:32:07;103870.19;;;5.80;100.00
7309;BME280;3695;53.330;9.876;2023-02-01T09:34:34;103840.06;;;5.75;100.00
7309;BME280;3695;53.330;9.876;2023-02-01T09:37:02;103810.28;;;5.89;100.00
7309;BME280;3695;53.330;9.876;2023-02-01T09:39:28;103789.66;;;5.77;100.00
7309;BME280;3695;53.330;9.876;2023-02-01T09:41:59;103791.38;;;5.78;100.00
7309;BME280;3695;53.330;9.876;2023-02-01T09:44:42;103791.25;;;5.92;100.00
7309;BME280;3695;53.330;9.876;2023-02-01T09:47:12;103747.06;;;5.71;100.00
7309;BME280;3695;53.330;9.876;2023-02-01T09:49:48;103707.38;;;5.85;100.00
7309;BME280;3695;53.330;9.876;2023-02-01T09:52:23;103711.16;;;5.83;100.00
7309;BME280;3695;53.330;9.876;2023-02-01T09:54:54;103704.22;;;6.15;100.00
7309;BME280;3695;53.330;9.876;2023-02-01T09:57:29;103727.03;;;6.34;100.00
7309;BME280;3695;53.330;9.876;2023-02-01T10:00:03;103667.50;;;6.25;100.00
7309;BME280;3695;53.330;9.876;2023-02-01T10:02:39;103608.13;;;6.16;100.00
7309;BME280;3695;53.330;9.876;2023-02-01T10:05:13;103543.59;;;6.03;100.00
7309;BME280;3695;53.330;9.876;2023-02-01T10:07:46;103482.63;;;6.13;100.00
7309;BME280;3695;53.330;9.876;2023-02-01T10:10:20;103473.81;;;6.11;100.00
7309;BME280;3695;53.330;9.876;2023-02-01T10:13:00;103440.66;;;5.99;100.00
7309;BME280;3695;53.330;9.876;2023-02-01T10:15:35;103445.56;;;6.06;100.00
7309;BME280;3695;53.330;9.876;2023-02-01T10:18:16;103441.53;;;6.22;100.00
7309;BME280;3695;53.330;9.876;2023-02-01T10:20:53;103406.38;;;6.24;100.00
7309;BME280;3695;53.330;9.876;2023-02-01T10:23:34;103388.88;;;6.18;100.00
7309;BME280;3695;53.330;9.876;2023-02-01T10:26:09;103395.00;;;6.20;100.00
7309;BME280;3695;53.330;9.876;2023-02-01T10:28:39;103378.44;;;6.36;100.00
7309;BME280;3695;53.330;9.876;2023-02-01T10:31:08;103270.69;;;6.36;100.00
7309;BME280;3695;53.330;9.876;2023-02-01T10:33:39;103173.13;;;6.32;100.00
7309;BME280;3695;53.330;9.876;2023-02-01T10:36:14;103139.81;;;6.34;100.00
7309;BME280;3695;53.330;9.876;2023-02-01T10:38:44;103060.28;;;6.29;100.00
7309;BME280;3695;53.330;9.876;2023-02-01T10:41:13;102975.53;;;6.34;100.00
7309;BME280;3695;53.330;9.876;2023-02-01T10:43:41;102916.56;;;6.40;100.00
7309;BME280;3695;53.330;9.876;2023-02-01T10:46:08;102914.84;;;6.29;100.00
7309;BME280;3695;53.330;9.876;2023-02-01T10:48:35;102884.81;;;6.34;100.00
7309;BME280;3695;53.330;9.876;2023-02-01T10:51:06;102877.00;;;6.41;100.00
7309;BME280;3695;53.330;9.876;2023-02-01T10:53:41;102870.91;;;6.29;100.00
7309;BME280;3695;53.330;9.876;2023-02-01T10:56:11;102901.25;;;6.31;100.00
7309;BME280;3695;53.330;9.876;2023-02-01T10:58:43;102928.22;;;6.10;100.00
7309;BME280;3695;53.330;9.876;2023-02-01T11:01:16;102944.59;;;6.18;100.00
7309;BME280;3695;53.330;9.876;2023-02-01T11:03:45;102948.59;;;6.34;100.00
7309;BME280;3695;53.330;9.876;2023-02-01T11:06:24;102932.31;;;6.45;100.00
7309;BME280;3695;53.330;9.876;2023-02-01T11:08:53;102909.19;;;6.42;100.00
7309;BME280;3695;53.330;9.876;2023-02-01T11:11:22;102884.25;;;6.40;100.00
7309;BME280;3695;53.330;9.876;2023-02-01T11:13:55;102852.03;;;6.19;100.00
7309;BME280;3695;53.330;9.876;2023-02-01T11:16:29;102807.97;;;6.40;100.00
7309;BME280;3695;53.330;9.876;2023-02-01T11:18:58;102750.13;;;6.44;100.00
7309;BME280;3695;53.330;9.876;2023-02-01T11:21:24;102715.69;;;6.38;100.00
7309;BME280;3695;53.330;9.876;2023-02-01T11:23:51;102745.19;;;6.39;100.00
7309;BME280;3695;53.330;9.876;2023-02-01T11:26:22;102766.59;;;6.31;100.00
7309;BME280;3695;53.330;9.876;2023-02-01T11:28:56;102761.06;;;6.32;100.00
7309;BME280;3695;53.330;9.876;2023-02-01T11:31:25;102766.44;;;6.32;100.00
7309;BME280;3695;53.330;9.876;2023-02-01T11:33:54;102783.72;;;6.40;100.00
7309;BME280;3695;53.330;9.876;2023-02-01T11:36:24;102799.03;;;6.29;100.00
7309;BME280;3695;53.330;9.876;2023-02-01T11:38:54;102804.44;;;6.20;100.00
7309;BME280;3695;53.330;9.876;2023-02-01T11:41:41;102836.47;;;6.23;100.00
7309;BME280;3695;53.330;9.876;2023-02-01T11:44:20;102851.25;;;5.98;100.00
7309;BME280;3695;53.330;9.876;2023-02-01T11:46:46;102871.41;;;6.04;100.00
7309;BME280;3695;53.330;9.876;2023-02-01T11:49:20;102880.16;;;5.96;100.00
7309;BME280;3695;53.330;9.876;2023-02-01T11:52:00;102930.34;;;6.07;100.00
7309;BME280;3695;53.330;9.876;2023-02-01T11:54:43;102928.94;;;6.12;100.00
7309;BME280;3695;53.330;9.876;2023-02-01T11:57:30;102930.88;;;6.00;100.00
7309;BME280;3695;53.330;9.876;2023-02-01T12:00:16;102959.03;;;6.17;100.00
7309;BME280;3695;53.330;9.876;2023-02-01T12:03:03;102971.13;;;6.02;100.00
7309;BME280;3695;53.330;9.876;2023-02-01T12:05:50;102952.72;;;5.77;100.00
7309;BME280;3695;53.330;9.876;2023-02-01T12:08:34;102876.47;;;5.36;100.00
7309;BME280;3695;53.330;9.876;2023-02-01T12:11:21;102878.56;;;5.12;100.00
7309;BME280;3695;53.330;9.876;2023-02-01T12:14:01;102917.69;;;5.04;100.00
7309;BME280;3695;53.330;9.876;2023-02-01T12:16:35;102957.59;;;4.88;100.00
7309;BME280;3695;53.330;9.876;2023-02-01T12:19:14;103014.06;;;5.20;100.00
7309;BME280;3695;53.330;9.876;2023-02-01T12:24:59;103010.16;;;4.59;100.00
7309;BME280;3695;53.330;9.876;2023-02-01T12:28:01;103031.41;;;4.17;100.00
7309;BME280;3695;53.330;9.876;2023-02-01T12:30:49;103066.44;;;4.16;100.00
7309;BME280;3695;53.330;9.876;2023-02-01T12:33:28;103121.69;;;4.18;100.00
7309;BME280;3695;53.330;9.876;2023-02-01T12:36:08;103140.09;;;3.76;100.00
7309;BME280;3695;53.330;9.876;2023-02-01T12:38:49;103216.59;;;3.58;100.00
7309;BME280;3695;53.330;9.876;2023-02-01T12:41:38;103254.84;;;3.24;100.00
7309;BME280;3695;53.330;9.876;2023-02-01T12:44:12;103303.97;;;3.11;100.00
7309;BME280;3695;53.330;9.876;2023-02-01T12:46:47;103327.22;;;2.86;100.00
7309;BME280;3695;53.330;9.876;2023-02-01T12:49:19;103361.13;;;2.72;100.00
7309;BME280;3695;53.330;9.876;2023-02-01T12:51:54;103355.09;;;2.29;100.00
7309;BME280;3695;53.330;9.876;2023-02-01T12:54:24;103379.72;;;2.48;100.00
7309;BME280;3695;53.330;9.876;2023-02-01T12:56:57;103371.13;;;2.43;100.00
7309;BME280;3695;53.330;9.876;2023-02-01T12:59:32;103397.13;;;2.81;100.00
7309;BME280;3695;53.330;9.876;2023-02-01T13:02:06;103416.75;;;2.81;100.00
7309;BME280;3695;53.330;9.876;2023-02-01T13:04:43;103425.19;;;2.75;100.00
7309;BME280;3695;53.330;9.876;2023-02-01T13:07:18;103429.25;;;2.68;100.00
7309;BME280;3695;53.330;9.876;2023-02-01T13:09:52;103449.31;;;2.48;100.00
7309;BME280;3695;53.330;9.876;2023-02-01T13:12:26;103480.44;;;2.64;100.00
7309;BME280;3695;53.330;9.876;2023-02-01T13:14:59;103514.22;;;2.79;100.00
7309;BME280;3695;53.330;9.876;2023-02-01T13:17:31;103508.13;;;2.77;100.00
7309;BME280;3695;53.330;9.876;2023-02-01T13:20:03;103501.22;;;2.87;100.00
7309;BME280;3695;53.330;9.876;2023-02-01T13:22:34;103530.34;;;3.19;100.00
7309;BME280;3695;53.330;9.876;2023-02-01T13:25:04;103503.44;;;3.20;100.00
7309;BME280;3695;53.330;9.876;2023-02-01T13:27:32;103507.63;;;3.24;100.00
7309;BME280;3695;53.330;9.876;2023-02-01T13:30:04;103503.94;;;3.00;100.00
7309;BME280;3695;53.330;9.876;2023-02-01T13:32:49;103523.22;;;3.32;100.00
7309;BME280;3695;53.330;9.876;2023-02-01T13:35:54;103515.78;;;3.23;100.00